sensor_id;sensor_type;location;lat;lon;timestamp;P1;durP1;ratioP1;P2;durP2;ratioP2
23228;SDS011;11783;50.350;6.576;2022-09-12T00:02:18;12.50;;;8.60;;
23228;SDS011;11783;50.350;6.576;2022-09-12T00:04:44;12.00;;;8.70;;
23228;SDS011;11783;50.350;6.576;2022-09-12T00:07:09;13.32;;;8.80;;
23228;SDS011;11783;50.350;6.576;2022-09-12T00:09:34;12.20;;;8.48;;
23228;SDS011;11783;50.350;6.576;2022-09-12T00:12:00;12.18;;;9.20;;
23228;SDS011;11783;50.350;6.576;2022-09-12T00:14:25;12.93;;;9.25;;
23228;SDS011;11783;50.350;6.576;2022-09-12T00:16:50;13.02;;;9.48;;
23228;SDS011;11783;50.350;6.576;2022-09-12T00:19:16;14.32;;;8.88;;
23228;SDS011;11783;50.350;6.576;2022-09-12T00:21:42;16.20;;;9.43;;
23228;SDS011;11783;50.350;6.576;2022-09-12T00:24:14;18.75;;;9.90;;
23228;SDS011;11783;50.350;6.576;2022-09-12T00:26:39;15.38;;;10.20;;
23228;SDS011;11783;50.350;6.576;2022-09-12T00:29:05;14.75;;;9.57;;
23228;SDS011;11783;50.350;6.576;2022-09-12T00:31:30;19.70;;;9.85;;
23228;SDS011;11783;50.350;6.576;2022-09-12T00:33:57;17.10;;;10.25;;
23228;SDS011;11783;50.350;6.576;2022-09-12T00:36:25;15.13;;;9.60;;
23228;SDS011;11783;50.350;6.576;2022-09-12T00:38:52;14.80;;;10.52;;
23228;SDS011;11783;50.350;6.576;2022-09-12T00:41:20;15.93;;;11.02;;
23228;SDS011;11783;50.350;6.576;2022-09-12T00:46:36;16.50;;;11.57;;
23228;SDS011;11783;50.350;6.576;2022-09-12T00:49:09;17.25;;;11.02;;
23228;SDS011;11783;50.350;6.576;2022-09-12T00:51:36;15.60;;;11.38;;
23228;SDS011;11783;50.350;6.576;2022-09-12T00:54:05;19.95;;;11.63;;
23228;SDS011;11783;50.350;6.576;2022-09-12T00:56:34;20.95;;;12.70;;
23228;SDS011;11783;50.350;6.576;2022-09-12T00:59:04;16.50;;;11.52;;
23228;SDS011;11783;50.350;6.576;2022-09-12T01:01:36;19.23;;;12.25;;
23228;SDS011;11783;50.350;6.576;2022-09-12T01:04:03;18.60;;;12.02;;
23228;SDS011;11783;50.350;6.576;2022-09-12T01:06:32;17.55;;;10.00;;
23228;SDS011;11783;50.350;6.576;2022-09-12T01:09:00;21.17;;;12.90;;
23228;SDS011;11783;50.350;6.576;2022-09-12T01:11:29;15.38;;;10.13;;
23228;SDS011;11783;50.350;6.576;2022-09-12T01:13:56;20.05;;;13.02;;
23228;SDS011;11783;50.350;6.576;2022-09-12T01:16:21;18.10;;;11.48;;
23228;SDS011;11783;50.350;6.576;2022-09-12T01:21:49;18.70;;;12.23;;
23228;SDS011;11783;50.350;6.576;2022-09-12T01:32:26;18.33;;;11.32;;
23228;SDS011;11783;50.350;6.576;2022-09-12T01:38:04;11.90;;;8.32;;
23228;SDS011;11783;50.350;6.576;2022-09-12T01:40:39;17.92;;;11.70;;
23228;SDS011;11783;50.350;6.576;2022-09-12T01:43:11;19.42;;;11.20;;
23228;SDS011;11783;50.350;6.576;2022-09-12T01:48:20;20.80;;;12.45;;
23228;SDS011;11783;50.350;6.576;2022-09-12T01:53:27;22.17;;;12.98;;
23228;SDS011;11783;50.350;6.576;2022-09-12T01:56:07;17.67;;;11.32;;
23228;SDS011;11783;50.350;6.576;2022-09-12T01:58:40;18.25;;;12.05;;
23228;SDS011;11783;50.350;6.576;2022-09-12T02:01:11;18.70;;;12.32;;
23228;SDS011;11783;50.350;6.576;2022-09-12T02:03:43;16.00;;;10.98;;
23228;SDS011;11783;50.350;6.576;2022-09-12T02:06:25;14.63;;;9.15;;
23228;SDS011;11783;50.350;6.576;2022-09-12T02:08:57;15.45;;;11.35;;
23228;SDS011;11783;50.350;6.576;2022-09-12T02:11:27;20.48;;;12.32;;
23228;SDS011;11783;50.350;6.576;2022-09-12T02:14:03;19.92;;;12.00;;
23228;SDS011;11783;50.350;6.576;2022-09-12T02:16:35;17.00;;;11.70;;
23228;SDS011;11783;50.350;6.576;2022-09-12T02:19:12;16.65;;;10.90;;
23228;SDS011;11783;50.350;6.576;2022-09-12T02:21:43;16.48;;;11.50;;
23228;SDS011;11783;50.350;6.576;2022-09-12T02:24:12;18.90;;;12.02;;
23228;SDS011;11783;50.350;6.576;2022-09-12T02:27:02;20.27;;;13.23;;
23228;SDS011;11783;50.350;6.576;2022-09-12T02:29:28;21.35;;;12.40;;
23228;SDS011;11783;50.350;6.576;2022-09-12T02:31:57;23.45;;;15.10;;
23228;SDS011;11783;50.350;6.576;2022-09-12T02:34:30;22.83;;;15.70;;
23228;SDS011;11783;50.350;6.576;2022-09-12T02:39:27;18.83;;;12.00;;
23228;SDS011;11783;50.350;6.576;2022-09-12T02:41:53;20.58;;;13.35;;
23228;SDS011;11783;50.350;6.576;2022-09-12T02:44:22;17.73;;;13.00;;
23228;SDS011;11783;50.350;6.576;2022-09-12T02:46:50;17.42;;;10.88;;
23228;SDS011;11783;50.350;6.576;2022-09-12T02:49:20;14.88;;;10.25;;
23228;SDS011;11783;50.350;6.576;2022-09-12T02:51:46;15.93;;;11.18;;
23228;SDS011;11783;50.350;6.576;2022-09-12T02:54:12;17.95;;;11.02;;
23228;SDS011;11783;50.350;6.576;2022-09-12T02:56:41;15.15;;;11.00;;
23228;SDS011;11783;50.350;6.576;2022-09-12T02:59:08;16.50;;;10.82;;
23228;SDS011;11783;50.350;6.576;2022-09-12T03:01:48;18.77;;;11.57;;
23228;SDS011;11783;50.350;6.576;2022-09-12T03:10:08;17.60;;;11.18;;
23228;SDS011;11783;50.350;6.576;2022-09-12T03:18:47;20.65;;;12.40;;
23228;SDS011;11783;50.350;6.576;2022-09-12T03:29:12;18.42;;;11.75;;
23228;SDS011;11783;50.350;6.576;2022-09-12T03:31:50;17.67;;;11.32;;
23228;SDS011;11783;50.350;6.576;2022-09-12T03:34:18;17.83;;;10.75;;
23228;SDS011;11783;50.350;6.576;2022-09-12T03:36:44;15.77;;;11.00;;
23228;SDS011;11783;50.350;6.576;2022-09-12T03:39:09;15.82;;;11.20;;
23228;SDS011;11783;50.350;6.576;2022-09-12T03:41:35;15.38;;;11.23;;
23228;SDS011;11783;50.350;6.576;2022-09-12T03:44:00;15.98;;;10.93;;
23228;SDS011;11783;50.350;6.576;2022-09-12T03:46:26;17.85;;;12.00;;
23228;SDS011;11783;50.350;6.576;2022-09-12T03:48:51;20.88;;;12.10;;
23228;SDS011;11783;50.350;6.576;2022-09-12T03:51:16;15.88;;;11.45;;
23228;SDS011;11783;50.350;6.576;2022-09-12T03:53:42;15.95;;;10.52;;
23228;SDS011;11783;50.350;6.576;2022-09-12T03:56:07;22.05;;;11.70;;
23228;SDS011;11783;50.350;6.576;2022-09-12T03:58:34;18.38;;;12.32;;
23228;SDS011;11783;50.350;6.576;2022-09-12T04:01:11;20.65;;;12.15;;
23228;SDS011;11783;50.350;6.576;2022-09-12T04:03:38;21.92;;;11.93;;
23228;SDS011;11783;50.350;6.576;2022-09-12T04:06:05;16.52;;;11.70;;
23228;SDS011;11783;50.350;6.576;2022-09-12T04:08:31;20.23;;;11.77;;
23228;SDS011;11783;50.350;6.576;2022-09-12T04:11:04;17.65;;;11.30;;
23228;SDS011;11783;50.350;6.576;2022-09-12T04:13:35;22.00;;;13.20;;
23228;SDS011;11783;50.350;6.576;2022-09-12T04:16:02;18.13;;;12.57;;
23228;SDS011;11783;50.350;6.576;2022-09-12T04:18:29;20.38;;;13.07;;
23228;SDS011;11783;50.350;6.576;2022-09-12T04:20:55;17.42;;;11.65;;
23228;SDS011;11783;50.350;6.576;2022-09-12T04:23:20;20.88;;;11.98;;
23228;SDS011;11783;50.350;6.576;2022-09-12T04:25:56;18.35;;;11.43;;
23228;SDS011;11783;50.350;6.576;2022-09-12T04:28:22;17.95;;;11.43;;
23228;SDS011;11783;50.350;6.576;2022-09-12T04:30:48;17.05;;;10.15;;
23228;SDS011;11783;50.350;6.576;2022-09-12T04:33:13;23.83;;;13.27;;
23228;SDS011;11783;50.350;6.576;2022-09-12T04:35:39;26.63;;;12.65;;
23228;SDS011;11783;50.350;6.576;2022-09-12T04:38:05;18.58;;;11.55;;
23228;SDS011;11783;50.350;6.576;2022-09-12T04:40:31;18.25;;;10.98;;
23228;SDS011;11783;50.350;6.576;2022-09-12T04:42:57;16.75;;;10.82;;
23228;SDS011;11783;50.350;6.576;2022-09-12T04:45:23;17.65;;;11.40;;
23228;SDS011;11783;50.350;6.576;2022-09-12T04:47:48;22.80;;;13.20;;
23228;SDS011;11783;50.350;6.576;2022-09-12T04:50:13;23.90;;;13.35;;
23228;SDS011;11783;50.350;6.576;2022-09-12T04:52:39;16.75;;;10.95;;
23228;SDS011;11783;50.350;6.576;2022-09-12T04:55:05;19.40;;;11.60;;
23228;SDS011;11783;50.350;6.576;2022-09-12T04:57:31;18.02;;;11.30;;
23228;SDS011;11783;50.350;6.576;2022-09-12T04:59:57;22.27;;;12.45;;
23228;SDS011;11783;50.350;6.576;2022-09-12T05:02:24;17.92;;;11.57;;
23228;SDS011;11783;50.350;6.576;2022-09-12T05:04:49;21.85;;;12.55;;
23228;SDS011;11783;50.350;6.576;2022-09-12T05:07:15;17.27;;;11.85;;
23228;SDS011;11783;50.350;6.576;2022-09-12T05:09:40;18.35;;;11.07;;
23228;SDS011;11783;50.350;6.576;2022-09-12T05:12:05;19.70;;;12.50;;
23228;SDS011;11783;50.350;6.576;2022-09-12T05:14:32;19.00;;;12.02;;
23228;SDS011;11783;50.350;6.576;2022-09-12T05:16:58;22.35;;;13.02;;
23228;SDS011;11783;50.350;6.576;2022-09-12T05:19:25;17.90;;;11.77;;
23228;SDS011;11783;50.350;6.576;2022-09-12T05:21:51;16.85;;;11.30;;
23228;SDS011;11783;50.350;6.576;2022-09-12T05:24:16;16.27;;;11.20;;
23228;SDS011;11783;50.350;6.576;2022-09-12T05:26:42;17.52;;;12.55;;
23228;SDS011;11783;50.350;6.576;2022-09-12T05:29:07;18.63;;;11.73;;
23228;SDS011;11783;50.350;6.576;2022-09-12T05:31:32;15.82;;;10.65;;
23228;SDS011;11783;50.350;6.576;2022-09-12T05:33:58;18.23;;;12.55;;
23228;SDS011;11783;50.350;6.576;2022-09-12T05:36:25;21.95;;;12.50;;
23228;SDS011;11783;50.350;6.576;2022-09-12T05:38:54;17.77;;;11.70;;
23228;SDS011;11783;50.350;6.576;2022-09-12T05:41:21;19.65;;;11.95;;
23228;SDS011;11783;50.350;6.576;2022-09-12T05:43:51;16.85;;;11.85;;
23228;SDS011;11783;50.350;6.576;2022-09-12T05:46:19;22.10;;;12.80;;
23228;SDS011;11783;50.350;6.576;2022-09-12T05:48:46;22.73;;;12.45;;
23228;SDS011;11783;50.350;6.576;2022-09-12T05:51:16;13.43;;;9.88;;
23228;SDS011;11783;50.350;6.576;2022-09-12T05:53:43;15.23;;;10.68;;
23228;SDS011;11783;50.350;6.576;2022-09-12T05:56:13;17.98;;;11.25;;
23228;SDS011;11783;50.350;6.576;2022-09-12T05:58:42;19.63;;;11.88;;
23228;SDS011;11783;50.350;6.576;2022-09-12T06:01:10;18.92;;;11.65;;
23228;SDS011;11783;50.350;6.576;2022-09-12T06:03:45;20.75;;;12.73;;
23228;SDS011;11783;50.350;6.576;2022-09-12T06:06:15;15.40;;;10.77;;
23228;SDS011;11783;50.350;6.576;2022-09-12T06:08:43;18.65;;;12.07;;
23228;SDS011;11783;50.350;6.576;2022-09-12T06:11:12;16.20;;;10.38;;
23228;SDS011;11783;50.350;6.576;2022-09-12T06:13:39;20.58;;;12.60;;
23228;SDS011;11783;50.350;6.576;2022-09-12T06:16:07;18.33;;;12.30;;
23228;SDS011;11783;50.350;6.576;2022-09-12T06:18:35;20.15;;;12.23;;
23228;SDS011;11783;50.350;6.576;2022-09-12T06:21:04;20.70;;;12.65;;
23228;SDS011;11783;50.350;6.576;2022-09-12T06:23:31;21.23;;;13.80;;
23228;SDS011;11783;50.350;6.576;2022-09-12T06:25:57;21.15;;;12.70;;
23228;SDS011;11783;50.350;6.576;2022-09-12T06:28:22;21.95;;;13.52;;
23228;SDS011;11783;50.350;6.576;2022-09-12T06:30:48;21.52;;;13.35;;
23228;SDS011;11783;50.350;6.576;2022-09-12T06:33:14;28.13;;;15.38;;
23228;SDS011;11783;50.350;6.576;2022-09-12T06:35:40;24.80;;;14.45;;
23228;SDS011;11783;50.350;6.576;2022-09-12T06:38:06;23.23;;;14.55;;
23228;SDS011;11783;50.350;6.576;2022-09-12T06:40:31;27.90;;;15.75;;
23228;SDS011;11783;50.350;6.576;2022-09-12T06:42:57;24.63;;;14.50;;
23228;SDS011;11783;50.350;6.576;2022-09-12T06:45:22;25.48;;;14.30;;
23228;SDS011;11783;50.350;6.576;2022-09-12T06:47:48;23.52;;;14.50;;
23228;SDS011;11783;50.350;6.576;2022-09-12T06:50:13;25.13;;;14.38;;
23228;SDS011;11783;50.350;6.576;2022-09-12T06:52:38;25.45;;;15.45;;
23228;SDS011;11783;50.350;6.576;2022-09-12T06:55:04;31.27;;;16.48;;
23228;SDS011;11783;50.350;6.576;2022-09-12T06:57:30;20.70;;;13.93;;
23228;SDS011;11783;50.350;6.576;2022-09-12T06:59:56;24.63;;;14.18;;
23228;SDS011;11783;50.350;6.576;2022-09-12T07:02:21;26.48;;;16.30;;
23228;SDS011;11783;50.350;6.576;2022-09-12T07:04:49;26.73;;;15.93;;
23228;SDS011;11783;50.350;6.576;2022-09-12T07:07:15;25.88;;;14.95;;
23228;SDS011;11783;50.350;6.576;2022-09-12T07:09:41;27.70;;;15.40;;
23228;SDS011;11783;50.350;6.576;2022-09-12T07:12:06;21.25;;;12.90;;
23228;SDS011;11783;50.350;6.576;2022-09-12T07:14:32;20.25;;;11.85;;
23228;SDS011;11783;50.350;6.576;2022-09-12T07:16:57;26.13;;;15.10;;
23228;SDS011;11783;50.350;6.576;2022-09-12T07:19:22;29.35;;;16.25;;
23228;SDS011;11783;50.350;6.576;2022-09-12T07:21:48;28.15;;;16.90;;
23228;SDS011;11783;50.350;6.576;2022-09-12T07:24:14;27.25;;;15.75;;
23228;SDS011;11783;50.350;6.576;2022-09-12T07:26:39;29.23;;;15.02;;
23228;SDS011;11783;50.350;6.576;2022-09-12T07:29:06;23.50;;;14.75;;
23228;SDS011;11783;50.350;6.576;2022-09-12T07:31:33;24.85;;;14.43;;
23228;SDS011;11783;50.350;6.576;2022-09-12T07:33:58;28.55;;;15.73;;
23228;SDS011;11783;50.350;6.576;2022-09-12T07:36:24;30.83;;;17.25;;
23228;SDS011;11783;50.350;6.576;2022-09-12T07:38:53;32.15;;;18.38;;
23228;SDS011;11783;50.350;6.576;2022-09-12T07:41:20;29.50;;;16.48;;
23228;SDS011;11783;50.350;6.576;2022-09-12T07:43:52;26.65;;;15.98;;
23228;SDS011;11783;50.350;6.576;2022-09-12T07:46:19;29.90;;;17.38;;
23228;SDS011;11783;50.350;6.576;2022-09-12T07:48:50;26.15;;;16.02;;
23228;SDS011;11783;50.350;6.576;2022-09-12T07:51:16;29.00;;;17.40;;
23228;SDS011;11783;50.350;6.576;2022-09-12T07:53:41;24.50;;;14.75;;
23228;SDS011;11783;50.350;6.576;2022-09-12T07:56:10;23.13;;;13.98;;
23228;SDS011;11783;50.350;6.576;2022-09-12T07:58:36;21.02;;;14.25;;
23228;SDS011;11783;50.350;6.576;2022-09-12T08:01:07;24.60;;;16.17;;
23228;SDS011;11783;50.350;6.576;2022-09-12T08:03:38;25.10;;;15.18;;
23228;SDS011;11783;50.350;6.576;2022-09-12T08:06:05;17.02;;;11.85;;
23228;SDS011;11783;50.350;6.576;2022-09-12T08:08:33;19.75;;;13.40;;
23228;SDS011;11783;50.350;6.576;2022-09-12T08:11:00;21.27;;;14.07;;
23228;SDS011;11783;50.350;6.576;2022-09-12T08:13:29;19.85;;;14.02;;
23228;SDS011;11783;50.350;6.576;2022-09-12T08:15:57;18.27;;;13.20;;
23228;SDS011;11783;50.350;6.576;2022-09-12T08:18:27;23.10;;;14.75;;
23228;SDS011;11783;50.350;6.576;2022-09-12T08:20:55;18.52;;;11.23;;
23228;SDS011;11783;50.350;6.576;2022-09-12T08:23:21;22.30;;;14.00;;
23228;SDS011;11783;50.350;6.576;2022-09-12T08:25:48;19.48;;;12.48;;
23228;SDS011;11783;50.350;6.576;2022-09-12T08:28:14;17.85;;;11.73;;
23228;SDS011;11783;50.350;6.576;2022-09-12T08:30:39;13.10;;;10.18;;
23228;SDS011;11783;50.350;6.576;2022-09-12T08:33:04;13.93;;;9.07;;
23228;SDS011;11783;50.350;6.576;2022-09-12T08:35:31;16.27;;;9.57;;
23228;SDS011;11783;50.350;6.576;2022-09-12T08:37:57;15.98;;;9.85;;
23228;SDS011;11783;50.350;6.576;2022-09-12T08:40:22;12.13;;;8.57;;
23228;SDS011;11783;50.350;6.576;2022-09-12T08:42:53;13.98;;;9.57;;
23228;SDS011;11783;50.350;6.576;2022-09-12T08:45:35;11.48;;;8.07;;
23228;SDS011;11783;50.350;6.576;2022-09-12T08:48:10;11.20;;;7.70;;
23228;SDS011;11783;50.350;6.576;2022-09-12T08:50:37;10.40;;;7.75;;
23228;SDS011;11783;50.350;6.576;2022-09-12T08:53:12;8.27;;;6.20;;
23228;SDS011;11783;50.350;6.576;2022-09-12T08:55:42;11.27;;;6.80;;
23228;SDS011;11783;50.350;6.576;2022-09-12T08:58:13;10.57;;;6.70;;
23228;SDS011;11783;50.350;6.576;2022-09-12T09:00:45;8.80;;;6.45;;
23228;SDS011;11783;50.350;6.576;2022-09-12T09:09:52;8.80;;;5.38;;
23228;SDS011;11783;50.350;6.576;2022-09-12T09:12:38;7.63;;;5.78;;
23228;SDS011;11783;50.350;6.576;2022-09-12T09:15:33;8.35;;;5.82;;
23228;SDS011;11783;50.350;6.576;2022-09-12T09:20:58;6.78;;;5.35;;
23228;SDS011;11783;50.350;6.576;2022-09-12T09:23:28;9.13;;;5.90;;
23228;SDS011;11783;50.350;6.576;2022-09-12T09:28:43;8.90;;;5.85;;
23228;SDS011;11783;50.350;6.576;2022-09-12T09:31:16;8.27;;;5.50;;
23228;SDS011;11783;50.350;6.576;2022-09-12T09:33:43;11.13;;;5.75;;
23228;SDS011;11783;50.350;6.576;2022-09-12T09:41:36;8.57;;;5.63;;
23228;SDS011;11783;50.350;6.576;2022-09-12T09:44:11;8.30;;;6.07;;
23228;SDS011;11783;50.350;6.576;2022-09-12T09:46:36;8.00;;;5.50;;
23228;SDS011;11783;50.350;6.576;2022-09-12T09:49:02;8.40;;;6.80;;
23228;SDS011;11783;50.350;6.576;2022-09-12T09:51:34;7.93;;;6.38;;
23228;SDS011;11783;50.350;6.576;2022-09-12T09:54:02;8.82;;;5.50;;
23228;SDS011;11783;50.350;6.576;2022-09-12T09:56:35;8.02;;;5.55;;
23228;SDS011;11783;50.350;6.576;2022-09-12T09:59:11;7.95;;;4.45;;
23228;SDS011;11783;50.350;6.576;2022-09-12T10:01:46;6.65;;;4.60;;
23228;SDS011;11783;50.350;6.576;2022-09-12T10:04:20;4.90;;;2.92;;
23228;SDS011;11783;50.350;6.576;2022-09-12T10:06:50;5.47;;;2.90;;
23228;SDS011;11783;50.350;6.576;2022-09-12T10:09:21;4.65;;;2.80;;
23228;SDS011;11783;50.350;6.576;2022-09-12T10:11:51;5.25;;;2.75;;
23228;SDS011;11783;50.350;6.576;2022-09-12T10:14:28;4.65;;;2.70;;
23228;SDS011;11783;50.350;6.576;2022-09-12T10:17:01;4.68;;;2.92;;
23228;SDS011;11783;50.350;6.576;2022-09-12T10:19:48;3.45;;;2.63;;
23228;SDS011;11783;50.350;6.576;2022-09-12T10:22:17;3.53;;;2.30;;
23228;SDS011;11783;50.350;6.576;2022-09-12T10:24:52;7.22;;;2.50;;
23228;SDS011;11783;50.350;6.576;2022-09-12T10:27:22;6.00;;;3.10;;
23228;SDS011;11783;50.350;6.576;2022-09-12T10:29:53;4.75;;;2.67;;
23228;SDS011;11783;50.350;6.576;2022-09-12T10:32:33;4.22;;;2.50;;
23228;SDS011;11783;50.350;6.576;2022-09-12T10:35:23;3.80;;;2.10;;
23228;SDS011;11783;50.350;6.576;2022-09-12T10:37:57;4.28;;;2.30;;
23228;SDS011;11783;50.350;6.576;2022-09-12T10:40:29;4.47;;;2.42;;
23228;SDS011;11783;50.350;6.576;2022-09-12T10:43:01;4.57;;;2.45;;
23228;SDS011;11783;50.350;6.576;2022-09-12T10:45:42;3.72;;;2.30;;
23228;SDS011;11783;50.350;6.576;2022-09-12T10:48:24;6.55;;;2.45;;
23228;SDS011;11783;50.350;6.576;2022-09-12T10:50:53;4.25;;;2.45;;
23228;SDS011;11783;50.350;6.576;2022-09-12T10:53:20;4.15;;;2.00;;
23228;SDS011;11783;50.350;6.576;2022-09-12T11:03:52;3.88;;;2.00;;
23228;SDS011;11783;50.350;6.576;2022-09-12T11:06:44;4.05;;;1.73;;
23228;SDS011;11783;50.350;6.576;2022-09-12T11:09:15;3.78;;;1.95;;
23228;SDS011;11783;50.350;6.576;2022-09-12T11:12:08;2.95;;;1.88;;
23228;SDS011;11783;50.350;6.576;2022-09-12T11:14:42;3.42;;;1.80;;
23228;SDS011;11783;50.350;6.576;2022-09-12T11:17:24;2.60;;;1.70;;
23228;SDS011;11783;50.350;6.576;2022-09-12T11:28:24;3.15;;;1.83;;
23228;SDS011;11783;50.350;6.576;2022-09-12T11:34:33;2.60;;;1.60;;
23228;SDS011;11783;50.350;6.576;2022-09-12T11:37:19;3.53;;;1.90;;
23228;SDS011;11783;50.350;6.576;2022-09-12T11:40:15;3.88;;;2.00;;
23228;SDS011;11783;50.350;6.576;2022-09-12T11:42:42;7.30;;;3.42;;
23228;SDS011;11783;50.350;6.576;2022-09-12T11:45:16;3.00;;;1.80;;
23228;SDS011;11783;50.350;6.576;2022-09-12T11:47:48;3.13;;;1.50;;
23228;SDS011;11783;50.350;6.576;2022-09-12T11:52:56;2.33;;;1.38;;
23228;SDS011;11783;50.350;6.576;2022-09-12T11:55:31;4.30;;;1.60;;
23228;SDS011;11783;50.350;6.576;2022-09-12T11:58:08;3.03;;;1.50;;
23228;SDS011;11783;50.350;6.576;2022-09-12T12:00:43;2.97;;;1.27;;
23228;SDS011;11783;50.350;6.576;2022-09-12T12:03:15;2.97;;;1.27;;
23228;SDS011;11783;50.350;6.576;2022-09-12T12:06:00;3.50;;;1.55;;
23228;SDS011;11783;50.350;6.576;2022-09-12T12:08:39;2.22;;;1.25;;
23228;SDS011;11783;50.350;6.576;2022-09-12T12:13:40;2.13;;;1.20;;
23228;SDS011;11783;50.350;6.576;2022-09-12T12:18:45;2.28;;;1.23;;
23228;SDS011;11783;50.350;6.576;2022-09-12T12:21:31;2.17;;;1.35;;
23228;SDS011;11783;50.350;6.576;2022-09-12T12:29:10;2.08;;;1.02;;
23228;SDS011;11783;50.350;6.576;2022-09-12T12:42:08;2.10;;;1.00;;
23228;SDS011;11783;50.350;6.576;2022-09-12T12:44:49;2.70;;;1.15;;
23228;SDS011;11783;50.350;6.576;2022-09-12T12:47:19;2.63;;;1.10;;
23228;SDS011;11783;50.350;6.576;2022-09-12T12:49:50;2.45;;;0.90;;
23228;SDS011;11783;50.350;6.576;2022-09-12T12:52:18;2.40;;;1.02;;
23228;SDS011;11783;50.350;6.576;2022-09-12T12:59:45;1.98;;;1.05;;
23228;SDS011;11783;50.350;6.576;2022-09-12T13:02:31;2.85;;;1.25;;
23228;SDS011;11783;50.350;6.576;2022-09-12T13:05:03;2.90;;;1.13;;
23228;SDS011;11783;50.350;6.576;2022-09-12T13:07:36;2.20;;;1.10;;
23228;SDS011;11783;50.350;6.576;2022-09-12T13:10:04;3.47;;;1.38;;
23228;SDS011;11783;50.350;6.576;2022-09-12T13:12:36;4.60;;;1.65;;
23228;SDS011;11783;50.350;6.576;2022-09-12T13:18:24;2.90;;;1.50;;
23228;SDS011;11783;50.350;6.576;2022-09-12T13:20:53;2.30;;;1.48;;
23228;SDS011;11783;50.350;6.576;2022-09-12T13:23:28;3.20;;;1.40;;
23228;SDS011;11783;50.350;6.576;2022-09-12T13:25:56;2.38;;;1.42;;
23228;SDS011;11783;50.350;6.576;2022-09-12T13:28:23;2.88;;;1.50;;
23228;SDS011;11783;50.350;6.576;2022-09-12T13:33:47;2.60;;;1.67;;
23228;SDS011;11783;50.350;6.576;2022-09-12T13:45:24;3.58;;;1.80;;
23228;SDS011;11783;50.350;6.576;2022-09-12T13:47:42;3.80;;;1.48;;
23228;SDS011;11783;50.350;6.576;2022-09-12T13:50:15;2.38;;;1.52;;
23228;SDS011;11783;50.350;6.576;2022-09-12T13:52:44;2.92;;;1.50;;
23228;SDS011;11783;50.350;6.576;2022-09-12T13:55:22;3.20;;;1.40;;
23228;SDS011;11783;50.350;6.576;2022-09-12T13:58:04;3.28;;;1.50;;
23228;SDS011;11783;50.350;6.576;2022-09-12T14:03:27;3.58;;;1.15;;
23228;SDS011;11783;50.350;6.576;2022-09-12T14:06:14;2.47;;;1.20;;
23228;SDS011;11783;50.350;6.576;2022-09-12T14:08:43;2.17;;;1.00;;
23228;SDS011;11783;50.350;6.576;2022-09-12T14:11:11;1.92;;;1.00;;
23228;SDS011;11783;50.350;6.576;2022-09-12T14:13:46;2.08;;;1.10;;
23228;SDS011;11783;50.350;6.576;2022-09-12T14:16:12;2.35;;;1.13;;
23228;SDS011;11783;50.350;6.576;2022-09-12T14:18:40;1.75;;;1.10;;
23228;SDS011;11783;50.350;6.576;2022-09-12T14:21:10;1.48;;;0.88;;
23228;SDS011;11783;50.350;6.576;2022-09-12T14:23:44;2.30;;;1.27;;
23228;SDS011;11783;50.350;6.576;2022-09-12T14:26:14;4.40;;;1.00;;
23228;SDS011;11783;50.350;6.576;2022-09-12T14:28:42;1.25;;;0.80;;
23228;SDS011;11783;50.350;6.576;2022-09-12T14:36:33;4.10;;;1.40;;
23228;SDS011;11783;50.350;6.576;2022-09-12T14:39:04;2.08;;;1.30;;
23228;SDS011;11783;50.350;6.576;2022-09-12T14:41:38;2.97;;;1.48;;
23228;SDS011;11783;50.350;6.576;2022-09-12T14:44:07;2.70;;;1.35;;
23228;SDS011;11783;50.350;6.576;2022-09-12T14:46:41;3.03;;;1.10;;
23228;SDS011;11783;50.350;6.576;2022-09-12T14:49:19;1.90;;;1.10;;
23228;SDS011;11783;50.350;6.576;2022-09-12T14:52:00;1.65;;;1.00;;
23228;SDS011;11783;50.350;6.576;2022-09-12T14:57:02;2.35;;;1.10;;
23228;SDS011;11783;50.350;6.576;2022-09-12T14:59:35;2.22;;;0.80;;
23228;SDS011;11783;50.350;6.576;2022-09-12T15:04:50;2.85;;;1.00;;
23228;SDS011;11783;50.350;6.576;2022-09-12T15:07:39;2.00;;;1.20;;
23228;SDS011;11783;50.350;6.576;2022-09-12T15:12:48;2.50;;;1.20;;
23228;SDS011;11783;50.350;6.576;2022-09-12T15:15:18;2.00;;;0.90;;
23228;SDS011;11783;50.350;6.576;2022-09-12T15:17:45;1.95;;;1.15;;
23228;SDS011;11783;50.350;6.576;2022-09-12T15:20:12;2.28;;;1.10;;
23228;SDS011;11783;50.350;6.576;2022-09-12T15:22:38;1.80;;;0.90;;
23228;SDS011;11783;50.350;6.576;2022-09-12T15:25:05;2.28;;;1.20;;
23228;SDS011;11783;50.350;6.576;2022-09-12T15:27:32;2.70;;;0.90;;
23228;SDS011;11783;50.350;6.576;2022-09-12T15:29:57;1.83;;;1.05;;
23228;SDS011;11783;50.350;6.576;2022-09-12T15:32:23;2.13;;;0.90;;
23228;SDS011;11783;50.350;6.576;2022-09-12T15:34:50;1.85;;;0.98;;
23228;SDS011;11783;50.350;6.576;2022-09-12T15:37:16;3.45;;;0.75;;
23228;SDS011;11783;50.350;6.576;2022-09-12T15:39:44;1.30;;;0.80;;
23228;SDS011;11783;50.350;6.576;2022-09-12T15:42:10;2.53;;;1.08;;
23228;SDS011;11783;50.350;6.576;2022-09-12T15:44:37;1.75;;;1.00;;
23228;SDS011;11783;50.350;6.576;2022-09-12T15:47:02;1.60;;;0.93;;
23228;SDS011;11783;50.350;6.576;2022-09-12T15:49:27;1.80;;;0.93;;
23228;SDS011;11783;50.350;6.576;2022-09-12T15:51:53;1.73;;;0.90;;
23228;SDS011;11783;50.350;6.576;2022-09-12T15:54:20;1.33;;;0.82;;
23228;SDS011;11783;50.350;6.576;2022-09-12T15:56:45;2.95;;;1.10;;
23228;SDS011;11783;50.350;6.576;2022-09-12T15:59:11;1.55;;;0.90;;
23228;SDS011;11783;50.350;6.576;2022-09-12T16:01:38;1.65;;;0.90;;
23228;SDS011;11783;50.350;6.576;2022-09-12T16:04:03;2.00;;;0.93;;
23228;SDS011;11783;50.350;6.576;2022-09-12T16:06:42;3.35;;;1.20;;
23228;SDS011;11783;50.350;6.576;2022-09-12T16:09:08;4.40;;;1.27;;
23228;SDS011;11783;50.350;6.576;2022-09-12T16:11:34;3.90;;;1.30;;
23228;SDS011;11783;50.350;6.576;2022-09-12T16:13:59;2.78;;;1.02;;
23228;SDS011;11783;50.350;6.576;2022-09-12T16:16:25;3.25;;;1.08;;
23228;SDS011;11783;50.350;6.576;2022-09-12T16:18:51;3.55;;;1.10;;
23228;SDS011;11783;50.350;6.576;2022-09-12T16:21:16;1.85;;;1.00;;
23228;SDS011;11783;50.350;6.576;2022-09-12T16:23:42;4.95;;;2.03;;
23228;SDS011;11783;50.350;6.576;2022-09-12T16:26:08;2.05;;;1.13;;
23228;SDS011;11783;50.350;6.576;2022-09-12T16:28:33;1.90;;;1.10;;
23228;SDS011;11783;50.350;6.576;2022-09-12T16:30:59;1.70;;;0.90;;
23228;SDS011;11783;50.350;6.576;2022-09-12T16:33:26;1.58;;;0.90;;
23228;SDS011;11783;50.350;6.576;2022-09-12T16:35:52;2.20;;;1.10;;
23228;SDS011;11783;50.350;6.576;2022-09-12T16:38:22;1.85;;;0.80;;
23228;SDS011;11783;50.350;6.576;2022-09-12T16:40:47;2.20;;;1.20;;
23228;SDS011;11783;50.350;6.576;2022-09-12T16:43:12;2.20;;;1.10;;
23228;SDS011;11783;50.350;6.576;2022-09-12T16:45:41;1.60;;;0.90;;
23228;SDS011;11783;50.350;6.576;2022-09-12T16:48:07;3.15;;;1.02;;
23228;SDS011;11783;50.350;6.576;2022-09-12T16:50:32;2.20;;;0.93;;
23228;SDS011;11783;50.350;6.576;2022-09-12T16:52:58;1.98;;;1.00;;
23228;SDS011;11783;50.350;6.576;2022-09-12T16:55:24;2.80;;;1.02;;
23228;SDS011;11783;50.350;6.576;2022-09-12T16:57:49;2.58;;;0.90;;
23228;SDS011;11783;50.350;6.576;2022-09-12T17:00:14;2.05;;;0.90;;
23228;SDS011;11783;50.350;6.576;2022-09-12T17:02:40;2.50;;;1.25;;
23228;SDS011;11783;50.350;6.576;2022-09-12T17:05:06;1.40;;;0.90;;
23228;SDS011;11783;50.350;6.576;2022-09-12T17:07:31;4.13;;;1.23;;
23228;SDS011;11783;50.350;6.576;2022-09-12T17:09:58;5.90;;;1.50;;